createdAt,value
2023-03-26T00:01:01.165Z,1
2023-03-26T00:04:03.114Z,1.1
2023-03-26T00:07:05.071Z,1.4
2023-03-26T00:10:07.057Z,1.2
2023-03-26T00:13:09.033Z,1.4
2023-03-26T00:16:10.974Z,1.1
2023-03-26T00:19:12.925Z,1
2023-03-26T00:22:14.907Z,1
2023-03-26T00:25:16.866Z,1.3
2023-03-26T00:28:18.793Z,1.1
2023-03-26T00:31:20.829Z,1.7
2023-03-26T00:34:22.714Z,1.1
2023-03-26T00:37:24.671Z,1
2023-03-26T00:40:26.614Z,1.4
2023-03-26T00:43:28.622Z,1.2
2023-03-26T00:46:30.604Z,1.6
2023-03-26T00:49:32.530Z,1.1
2023-03-26T00:52:34.488Z,1.4
2023-03-26T00:55:36.505Z,1.1
2023-03-26T00:58:38.416Z,1.3
2023-03-26T01:01:40.387Z,1.3
2023-03-26T01:04:42.472Z,1.5
2023-03-26T01:07:44.301Z,0.9
2023-03-26T01:10:46.357Z,1.3
2023-03-26T01:13:48.260Z,1.4
2023-03-26T01:16:50.233Z,1.7
2023-03-26T01:19:52.151Z,1.5
2023-03-26T01:22:54.129Z,1
2023-03-26T01:25:56.278Z,1.5
2023-03-26T01:28:58.041Z,1.6
2023-03-26T01:31:59.992Z,1.3
2023-03-26T01:35:01.957Z,1.2
2023-03-26T01:38:03.973Z,1.1
2023-03-26T01:41:05.876Z,1.1
2023-03-26T01:44:07.830Z,1.3
2023-03-26T01:47:09.819Z,1.6
2023-03-26T01:50:11.762Z,1.6
2023-03-26T01:53:13.727Z,1.6
2023-03-26T01:56:15.688Z,1.7
2023-03-26T01:59:17.663Z,1.5
2023-03-26T02:02:19.670Z,1.2
2023-03-26T02:05:21.569Z,0.9
2023-03-26T02:08:23.594Z,1.4
2023-03-26T02:11:33.598Z,1.3
2023-03-26T02:14:27.475Z,1.1
2023-03-26T02:17:29.448Z,1.4
2023-03-26T02:20:31.410Z,1.3
2023-03-26T02:23:33.358Z,1.4
2023-03-26T02:26:35.332Z,1.5
2023-03-26T02:29:37.295Z,1.3
2023-03-26T02:32:39.305Z,1.8
2023-03-26T02:35:41.297Z,1.4
2023-03-26T02:38:43.213Z,1.3
2023-03-26T02:41:45.154Z,1.8
2023-03-26T02:44:47.133Z,1.6
2023-03-26T02:47:49.118Z,1.8
2023-03-26T02:50:51.054Z,1.4
2023-03-26T02:53:53.022Z,1.6
2023-03-26T02:56:55.014Z,1.8
2023-03-26T02:59:56.938Z,1.5
2023-03-26T03:02:59.026Z,1.7
2023-03-26T03:06:00.860Z,1.7
2023-03-26T03:09:02.828Z,1.8
2023-03-26T03:12:04.766Z,1.6
2023-03-26T03:15:06.744Z,1.4
2023-03-26T03:18:08.700Z,2.5
2023-03-26T03:21:10.643Z,1.6
2023-03-26T03:24:12.617Z,1.8
2023-03-26T03:27:14.565Z,1.3
2023-03-26T03:30:16.546Z,1.4
2023-03-26T03:33:18.489Z,1.6
2023-03-26T03:36:21.818Z,1.6
2023-03-26T03:39:22.412Z,1.7
2023-03-26T03:42:24.393Z,1.6
2023-03-26T03:45:26.359Z,1.7
2023-03-26T03:48:28.325Z,2.3
2023-03-26T03:51:30.251Z,1.6
2023-03-26T03:54:32.233Z,1.6
2023-03-26T03:57:34.192Z,2
2023-03-26T04:00:36.168Z,1.7
2023-03-26T04:03:38.249Z,1.8
2023-03-26T04:06:40.090Z,1.3
2023-03-26T04:09:42.052Z,1.7
2023-03-26T04:12:44.010Z,1.8
2023-03-26T04:15:46.005Z,1.4
2023-03-26T04:18:48.131Z,1.3
2023-03-26T04:21:49.913Z,1.4
2023-03-26T04:24:51.920Z,1.6
2023-03-26T04:27:53.870Z,1.9
2023-03-26T04:30:55.823Z,2.3
2023-03-26T04:33:57.803Z,1.5
2023-03-26T04:36:59.735Z,1.4
2023-03-26T04:40:01.719Z,2.1
2023-03-26T04:43:03.708Z,1.6
2023-03-26T04:46:05.667Z,1.8
2023-03-26T04:49:07.656Z,2.1
2023-03-26T04:52:09.623Z,2.7
2023-03-26T04:55:11.590Z,2.1
2023-03-26T04:58:13.568Z,2.2
2023-03-26T05:01:15.534Z,1.9
2023-03-26T05:04:17.513Z,1.6
2023-03-26T05:07:19.513Z,2.2
2023-03-26T05:10:21.531Z,1.5
2023-03-26T05:13:23.493Z,1.7
2023-03-26T05:16:25.538Z,1.9
2023-03-26T05:19:27.460Z,1.9
2023-03-26T05:22:29.394Z,1.9
2023-03-26T05:25:31.374Z,1.7
2023-03-26T05:28:33.329Z,1.6
2023-03-26T05:31:35.286Z,1.6
2023-03-26T05:34:37.258Z,2.1
2023-03-26T05:37:39.215Z,2.2
2023-03-26T05:40:41.196Z,2.2
2023-03-26T05:43:43.172Z,1.7
2023-03-26T05:46:45.157Z,2
2023-03-26T05:49:47.117Z,2.3
2023-03-26T05:52:49.084Z,1.8
2023-03-26T05:55:51.034Z,1.5
2023-03-26T05:58:52.983Z,1.6
2023-03-26T06:01:54.978Z,1.8
2023-03-26T06:04:56.946Z,1.8
2023-03-26T06:07:58.895Z,1.7
2023-03-26T06:11:00.849Z,1.6
2023-03-26T06:14:02.908Z,2.2
2023-03-26T06:17:04.851Z,1.7
2023-03-26T06:20:08.815Z,2
2023-03-26T06:23:08.798Z,1.8
2023-03-26T06:26:10.759Z,1.8
2023-03-26T06:29:12.711Z,1.4
2023-03-26T06:32:19.425Z,1.6
2023-03-26T06:35:16.803Z,1.5
2023-03-26T06:38:18.631Z,1.6
2023-03-26T06:41:20.599Z,2.3
2023-03-26T06:44:22.572Z,1.6
2023-03-26T06:47:24.587Z,1.6
2023-03-26T06:50:26.521Z,2
2023-03-26T06:53:28.484Z,2.4
2023-03-26T06:56:30.490Z,1.9
2023-03-26T06:59:32.448Z,1.9
2023-03-26T07:02:34.371Z,1.7
2023-03-26T07:05:36.331Z,2
2023-03-26T07:08:38.304Z,1.4
2023-03-26T07:11:40.260Z,1.9
2023-03-26T07:14:42.248Z,1.6
2023-03-26T07:17:44.228Z,1.7
2023-03-26T07:20:46.175Z,2.2
2023-03-26T07:23:48.137Z,2.3
2023-03-26T07:26:50.104Z,2.1
2023-03-26T07:29:52.054Z,1.7
2023-03-26T07:32:54.074Z,2.4
2023-03-26T07:35:55.938Z,1.9
2023-03-26T07:38:57.889Z,2.2
2023-03-26T07:41:59.836Z,2.6
2023-03-26T07:45:01.817Z,2.5
2023-03-26T07:48:03.851Z,2.1
2023-03-26T07:51:05.761Z,2.8
2023-03-26T07:54:07.727Z,2.2
2023-03-26T07:57:09.794Z,2.8
2023-03-26T08:00:11.656Z,1.9
2023-03-26T08:03:13.685Z,2.2
2023-03-26T08:06:15.564Z,1.9
2023-03-26T08:09:17.521Z,2.4
2023-03-26T08:12:19.528Z,2.5
2023-03-26T08:15:21.461Z,2.6
2023-03-26T08:18:23.438Z,2.3
2023-03-26T08:21:25.441Z,1.9
2023-03-26T08:24:27.451Z,2.1
2023-03-26T08:27:29.373Z,2.4
2023-03-26T08:30:31.358Z,1.9
2023-03-26T08:33:33.355Z,1.9
2023-03-26T08:36:35.312Z,1.9
2023-03-26T08:39:37.280Z,2.2
2023-03-26T08:42:39.215Z,2.6
2023-03-26T08:45:41.181Z,2.3
2023-03-26T08:48:43.137Z,2.6
2023-03-26T08:51:45.093Z,2
2023-03-26T08:54:47.063Z,2
2023-03-26T08:57:49.052Z,2.6
2023-03-26T09:00:51.006Z,2.3
2023-03-26T09:03:53.137Z,2
2023-03-26T09:06:54.958Z,2
2023-03-26T09:09:56.931Z,2.4
2023-03-26T09:12:58.913Z,2.1
2023-03-26T09:16:00.876Z,2
2023-03-26T09:19:02.889Z,2.3
2023-03-26T09:22:04.954Z,2.2
2023-03-26T09:25:06.839Z,2.3
2023-03-26T09:28:08.797Z,2.7
2023-03-26T09:31:10.758Z,1.7
2023-03-26T09:34:12.714Z,2.6
2023-03-26T09:37:14.667Z,2.1
2023-03-26T09:40:16.696Z,1.9
2023-03-26T09:43:18.641Z,1.5
2023-03-26T09:46:20.634Z,1.9
2023-03-26T09:49:22.564Z,1.9
2023-03-26T09:52:24.586Z,1.7
2023-03-26T09:55:26.686Z,1.7
2023-03-26T09:58:28.536Z,1.7
2023-03-26T10:01:30.496Z,1.8
2023-03-26T10:04:32.472Z,2.3
2023-03-26T10:07:34.422Z,2
2023-03-26T10:10:36.424Z,1.8
2023-03-26T10:13:38.352Z,1.6
2023-03-26T10:16:40.361Z,2
2023-03-26T10:19:42.300Z,2.4
2023-03-26T10:22:44.296Z,1.7
2023-03-26T10:25:46.241Z,1.3
2023-03-26T10:28:48.223Z,2
2023-03-26T10:31:50.201Z,1.5
2023-03-26T10:34:52.154Z,1.4
2023-03-26T10:37:54.342Z,1.1
2023-03-26T10:40:56.213Z,1.4
2023-03-26T10:44:05.509Z,1.4
2023-03-26T10:47:00.033Z,1.3
2023-03-26T10:50:01.976Z,1.7
2023-03-26T10:53:04.005Z,0.9
2023-03-26T10:56:05.925Z,1.1
2023-03-26T10:59:07.917Z,1.3
2023-03-26T11:02:09.927Z,1.3
2023-03-26T11:05:12.061Z,1.4
2023-03-26T11:08:13.796Z,1.4
2023-03-26T11:11:16.061Z,1.5
2023-03-26T11:14:24.600Z,1.4
2023-03-26T11:17:39.289Z,1.3
2023-03-26T11:20:21.646Z,1.1
2023-03-26T11:23:23.666Z,1.2
2023-03-26T11:26:25.626Z,1.3
2023-03-26T11:29:31.171Z,1
2023-03-26T11:32:29.522Z,1.2
2023-03-26T11:35:40.032Z,1.1
2023-03-26T11:38:33.449Z,1.1
2023-03-26T11:41:35.432Z,1.2
2023-03-26T11:44:37.384Z,1.2
2023-03-26T11:47:39.367Z,1.1
2023-03-26T11:50:41.317Z,1.1
2023-03-26T11:53:43.289Z,1.2
2023-03-26T11:57:04.374Z,0.9
2023-03-26T11:59:56.202Z,1.4
2023-03-26T12:02:49.310Z,1
2023-03-26T12:05:51.168Z,0.8
2023-03-26T12:08:53.125Z,1.5
2023-03-26T12:11:55.147Z,1.2
2023-03-26T12:14:57.042Z,1.4
2023-03-26T12:17:59.012Z,1.2
2023-03-26T12:21:00.973Z,1.4
2023-03-26T12:24:02.942Z,1.1
2023-03-26T12:27:04.905Z,1
2023-03-26T12:30:06.911Z,0.8
2023-03-26T12:33:08.891Z,1
2023-03-26T12:36:10.840Z,0.8
2023-03-26T12:39:16.042Z,0.7
2023-03-26T12:42:26.098Z,1
2023-03-26T12:45:16.753Z,1.1
2023-03-26T12:48:18.746Z,1.1
2023-03-26T12:51:20.683Z,1.5
2023-03-26T12:54:22.654Z,1
2023-03-26T12:57:24.676Z,1
2023-03-26T13:00:26.545Z,0.9
2023-03-26T13:03:28.539Z,0.7
2023-03-26T13:06:30.504Z,0.9
2023-03-26T13:09:32.531Z,0.9
2023-03-26T13:12:34.413Z,0.8
2023-03-26T13:15:36.378Z,0.8
2023-03-26T13:18:38.349Z,1.1
2023-03-26T13:21:40.320Z,0.7
2023-03-26T13:24:42.279Z,0.7
2023-03-26T13:27:44.232Z,0.5
2023-03-26T13:30:46.185Z,0.6
2023-03-26T13:33:48.153Z,0.8
2023-03-26T13:36:50.216Z,1
2023-03-26T13:39:52.088Z,0.9
2023-03-26T13:42:54.747Z,0.9
2023-03-26T13:45:56.006Z,1
2023-03-26T13:48:57.957Z,0.7
2023-03-26T13:51:59.906Z,0.7
2023-03-26T13:55:01.865Z,0.6
2023-03-26T13:58:03.855Z,0.7
2023-03-26T14:01:05.820Z,0.7
2023-03-26T14:04:07.779Z,0.6
2023-03-26T14:07:09.739Z,0.7
2023-03-26T14:10:11.689Z,0.6
2023-03-26T14:13:13.653Z,0.6
2023-03-26T14:16:15.655Z,0.6
2023-03-26T14:19:17.556Z,0.7
2023-03-26T14:22:19.515Z,0.5
2023-03-26T14:25:21.487Z,0.4
2023-03-26T14:28:23.435Z,0.7
2023-03-26T14:31:25.508Z,0.5
2023-03-26T14:34:27.373Z,0.6
2023-03-26T14:37:29.328Z,0.5
2023-03-26T14:40:31.312Z,0.7
2023-03-26T14:43:33.256Z,0.5
2023-03-26T14:46:35.297Z,0.7
2023-03-26T14:49:37.173Z,0.6
2023-03-26T14:52:39.182Z,0.7
2023-03-26T14:55:41.094Z,0.7
2023-03-26T14:58:43.084Z,0.7
2023-03-26T15:01:45.060Z,0.8
2023-03-26T15:04:46.998Z,0.7
2023-03-26T15:07:48.951Z,0.7
2023-03-26T15:10:50.916Z,0.6
2023-03-26T15:13:52.881Z,1.1
2023-03-26T15:16:54.848Z,0.6
2023-03-26T15:19:56.800Z,0.6
2023-03-26T15:22:58.801Z,0.6
2023-03-26T15:26:00.753Z,1.1
2023-03-26T15:29:02.699Z,1.1
2023-03-26T15:32:04.673Z,0.9
2023-03-26T15:35:06.624Z,1.2
2023-03-26T15:38:08.590Z,0.7
2023-03-26T15:41:10.557Z,0.9
2023-03-26T15:44:23.251Z,0.8
2023-03-26T15:47:14.505Z,0.9
2023-03-26T15:50:16.464Z,1
2023-03-26T15:53:18.720Z,1.2
2023-03-26T15:56:20.405Z,0.5
2023-03-26T15:59:22.333Z,0.4
2023-03-26T16:02:24.320Z,0.6
2023-03-26T16:05:26.361Z,0.4
2023-03-26T16:08:28.228Z,0.5
2023-03-26T16:11:30.172Z,0.4
2023-03-26T16:14:32.134Z,0.5
2023-03-26T16:17:34.098Z,0.3
2023-03-26T16:20:36.059Z,0.3
2023-03-26T16:23:47.458Z,0.3
2023-03-26T16:26:40.091Z,0.2
2023-03-26T16:29:42.071Z,0.4
2023-03-26T16:32:44.050Z,0.3
2023-03-26T16:35:45.988Z,0.5
2023-03-26T16:38:47.952Z,0.4
2023-03-26T16:41:49.918Z,0.5
2023-03-26T16:44:51.883Z,0.5
2023-03-26T16:47:53.888Z,0.6
2023-03-26T16:50:55.905Z,0.6
2023-03-26T16:53:58.183Z,1
2023-03-26T16:56:59.794Z,1
2023-03-26T17:00:05.544Z,0.7
2023-03-26T17:03:03.810Z,0.7
2023-03-26T17:06:05.647Z,0.6
2023-03-26T17:09:09.447Z,0.7
2023-03-26T17:12:09.572Z,0.6
2023-03-26T17:15:11.532Z,0.5
2023-03-26T17:18:13.578Z,0.5
2023-03-26T17:21:15.476Z,0.5
2023-03-26T17:24:17.438Z,0.6
2023-03-26T17:27:19.556Z,0.7
2023-03-26T17:30:21.638Z,0.8
2023-03-26T17:33:23.322Z,0.8
2023-03-26T17:36:25.293Z,0.8
2023-03-26T17:39:27.259Z,0.5
2023-03-26T17:42:29.218Z,0.8
2023-03-26T17:45:31.187Z,0.9
2023-03-26T17:48:33.138Z,0.6
2023-03-26T17:51:35.125Z,1
2023-03-26T17:54:37.077Z,0.9
2023-03-26T17:57:39.054Z,0.7
2023-03-26T18:00:40.997Z,0.7
2023-03-26T18:03:42.960Z,0.7
2023-03-26T18:06:44.916Z,0.8
2023-03-26T18:09:46.895Z,1
2023-03-26T18:12:50.590Z,0.9
2023-03-26T18:15:50.820Z,1
2023-03-26T18:18:52.771Z,0.7
2023-03-26T18:21:54.748Z,0.9
2023-03-26T18:24:56.712Z,1
2023-03-26T18:27:58.677Z,1
2023-03-26T18:31:00.650Z,0.9
2023-03-26T18:34:02.596Z,1
2023-03-26T18:37:04.565Z,0.9
2023-03-26T18:40:06.543Z,0.7
2023-03-26T18:43:08.477Z,1.1
2023-03-26T18:46:10.519Z,1
2023-03-26T18:49:12.453Z,0.7
2023-03-26T18:52:14.415Z,0.7
2023-03-26T18:55:16.386Z,0.8
2023-03-26T18:58:18.332Z,0.9
2023-03-26T19:01:25.304Z,0.9
2023-03-26T19:04:22.234Z,0.7
2023-03-26T19:07:24.232Z,0.8
2023-03-26T19:10:26.172Z,0.7
2023-03-26T19:13:28.123Z,0.6
2023-03-26T19:16:30.114Z,0.8
2023-03-26T19:19:32.058Z,0.9
2023-03-26T19:22:34.008Z,0.7
2023-03-26T19:25:35.992Z,0.7
2023-03-26T19:28:38.157Z,0.8
2023-03-26T19:31:39.936Z,0.8
2023-03-26T19:34:41.871Z,0.9
2023-03-26T19:37:43.838Z,0.9
2023-03-26T19:40:45.812Z,0.9
2023-03-26T19:43:47.739Z,1
2023-03-26T19:47:47.558Z,1.1
2023-03-26T19:49:51.680Z,2
2023-03-26T19:52:54.390Z,1.6
2023-03-26T19:55:55.631Z,1.5
2023-03-26T19:58:57.576Z,1.2
2023-03-26T20:01:59.543Z,1.4
2023-03-26T20:05:01.477Z,1.2
2023-03-26T20:08:03.428Z,1.4
2023-03-26T20:11:05.426Z,1.3
2023-03-26T20:14:07.371Z,1.2
2023-03-26T20:17:09.325Z,1.7
2023-03-26T20:20:11.296Z,1.6
2023-03-26T20:23:13.259Z,1.3
2023-03-26T20:26:15.234Z,1.1
2023-03-26T20:29:17.171Z,1.3
2023-03-26T20:32:19.209Z,1.1
2023-03-26T20:35:35.702Z,1
2023-03-26T20:38:29.595Z,1.1
2023-03-26T20:41:25.054Z,1.2
2023-03-26T20:44:27.035Z,1.2
2023-03-26T20:47:29.038Z,0.9
2023-03-26T20:50:33.623Z,1.1
2023-03-26T20:53:32.911Z,1.1
2023-03-26T20:56:35.303Z,1.2
2023-03-26T20:59:36.936Z,0.9
2023-03-26T21:02:40.100Z,1.4
2023-03-26T21:05:40.779Z,1.5
2023-03-26T21:08:42.733Z,0.9
2023-03-26T21:11:44.707Z,1.1
2023-03-26T21:14:46.677Z,0.9
2023-03-26T21:17:48.685Z,1.2
2023-03-26T21:20:50.627Z,0.8
2023-03-26T21:23:52.543Z,0.6
2023-03-26T21:26:54.500Z,0.7
2023-03-26T21:29:56.462Z,0.7
2023-03-26T21:32:58.500Z,0.7
2023-03-26T21:36:00.456Z,0.9
2023-03-26T21:39:02.380Z,0.8
2023-03-26T21:42:05.978Z,0.8
2023-03-26T21:45:06.352Z,1.3
2023-03-26T21:48:08.340Z,1.1
2023-03-26T21:51:10.279Z,0.9
2023-03-26T21:54:12.279Z,1
2023-03-26T21:57:14.272Z,0.9
2023-03-26T22:00:16.282Z,1
2023-03-26T22:03:18.241Z,1.3
2023-03-26T22:06:20.165Z,1.1
2023-03-26T22:09:33.821Z,1.1
2023-03-26T22:12:24.106Z,1.2
2023-03-26T22:15:26.070Z,1.3
2023-03-26T22:18:28.004Z,1.3
2023-03-26T22:21:30.000Z,1.5
2023-03-26T22:24:32.032Z,1.6
2023-03-26T22:27:33.951Z,1.5
2023-03-26T22:30:35.919Z,1.7
2023-03-26T22:33:37.885Z,1.8
2023-03-26T22:36:40.437Z,1.9
2023-03-26T22:39:41.798Z,2.1
2023-03-26T22:42:43.767Z,2.4
2023-03-26T22:45:45.729Z,2.4
2023-03-26T22:48:47.723Z,2.6
2023-03-26T22:51:49.810Z,2.3
2023-03-26T22:54:51.641Z,2.2
2023-03-26T22:57:53.578Z,2.3
2023-03-26T23:00:55.650Z,2.4
2023-03-26T23:03:57.522Z,2.4
2023-03-26T23:06:59.486Z,2.2
2023-03-26T23:10:01.430Z,2.3
2023-03-26T23:13:03.396Z,2.3
2023-03-26T23:16:05.398Z,2
2023-03-26T23:19:07.325Z,2
2023-03-26T23:22:09.282Z,1.8
2023-03-26T23:25:11.272Z,1.8
2023-03-26T23:28:13.208Z,1.6
2023-03-26T23:31:15.205Z,1.8
2023-03-26T23:34:17.275Z,1.9
2023-03-26T23:37:19.124Z,1.6
2023-03-26T23:40:21.078Z,2.2
2023-03-26T23:43:23.034Z,2.1
2023-03-26T23:46:25.032Z,2.4
2023-03-26T23:49:26.959Z,2.4
2023-03-26T23:52:28.908Z,2.8
2023-03-26T23:55:30.878Z,2.7
2023-03-26T23:58:32.836Z,2.4
